Tuesday, June 28, 2016
16:50 UTC
  |  Log In   |  Register Free
Airport Search:

Enterprise Municipal Airport
(KEDN)

Enterprise Municipal Airport Diagram
No Airport Diagram Available

FAA data valid effective May 26 2016 - Jul 21 2016 (unless otherwise noted).

 
 
 
 
 
 
 
 
 
 
 
 
 
 
Current Aviation Weather for KEDN

Weather Summary


The most recent METAR observation for EDN was updated at: 12:53 UTC
METAR for KEDN is not available. Closest METAR is for KSXS
KEDN  (most recent observation was updatred at 28:15 UTC)
281555Z AUTO 33005KT 10SM SCT023 28/22 A3002 RMK AO2

KSXS  (4.6 nm SW)   (most recent observation was updated at 28:15 UTC)
281556Z AUTO 28004KT 10SM FEW130 30/22 A3004 RMK AO2 SLP170 T02980215

KLOR  (8.3 nm SW)   (most recent observation was updated at 28:15 UTC)
281553Z AUTO VRB03KT 10SM CLR 30/22 A3001 RMK AO2 SLP159 T03000217 $

TAF for KEDN is not available.
KOZR  (9.7 nm NW)   (most recent observation was updatred at 28:16 UTC)
281600Z 2816/2922 VRB06KT 9999 SKC QNH3000INS BECMG 2817/2818 29009KT 9999 VCTS SCT040CB QNH2997INS TEMPO 2818/2902 32020G28KT 8000 -TSRA BKN030CB BECMG 2905/2906 VRB06KT 9999 NSW SCT008 QNH2997INS BECMG 2908/2909 VRB06KT 4800 BR OVC007 QNH2999INS TEMPO 2909/2913 OVC005 BECMG 2915/2916 25009KT 9999 NSW SCT010 QNH3001INS BECMG 2917/2918 23009KT 9000 -SHRA BKN030 QNH2997INS TEMPO 2918/2922 23015G25KT 3200 -TSRA BKN020CB TX33/2820Z TN21/2912Z


KDHN  (23.1 nm SW)   (most recent observation was updatred at 28:11 UTC)
281120Z 2812/2912 25004KT P6SM SCT030 FM282200 28007KT P6SM VCTS BKN050CB FM290200 25004KT P6SM BKN250


KTOI  (34.1 nm SE)   (most recent observation was updatred at 28:13 UTC)
AMD 281339Z 2814/2912 30006KT P6SM SKC FM282100 36010KT P6SM VCTS BKN050CB FM290400 01005KT P6SM BKN250
GlobalAir.com is loading additional information.
 Current Weather at EDN
81.0 F° (27.0 C°)

Northwest winds at 4.6 mph
Pressure:
30.02 in
Humidity:
74%
Wind:
Northwest at 4.6 mph
Dew Point:
71.6 F° (22.0 C°)
Visibility:
10.00 mi
EDN NOAA Radar




Find All Airport Services Find A Hotel Find A Rental Car Find A Golf Course Find A Restaurant $100 Hamburger



Airport Weather Forecast for KEDN

Translated METAR for KEDN (1555 UTC)
METAR:
KEDN 281555Z AUTO 33005KT 10SM SCT023 28/22 A3002 RMK AO2
Conditions at:
KEDN (Enterprise Muni, AL) observed 1555 UTC 28 June 2016
Temperature:
28°C (82.4°F)
Dewpoint:
22°C (71.6°F) [RH = 69.9]
Pressure:
30.02 inches Hg (1016.6 mb)
Winds:
from the NNW (330 degrees) at 5.8 mph (5 knots: 2.6 m/s)
Visibility:
10 mile(s)
Ceiling:
at least 12,000 feet AGL
Clouds:
Scattered Clouds at 2,300 feet AGL
Remarks:
site is un-manned
site is automated and HAS a precipitation sensor

Translated TAF for KOZR (Cairns Aaf (Fort Rucker), AL) (1600 UTC)
TAF text:
KOZR 281600Z 2816/2922 VRB06KT 9999 SKC QNH3000INS BECMG 2817/2818 29009KT 9999 VCTS SCT040CB QNH2997INS
Forecast period:
Tuesday Jun 28 2016 16:00 UTC - Wednesday Jun 29 2016 22:00 UTC
Forecast type:
FROM: standard forecast or significant change
Winds:
from the WNW (290 degrees) at 10.4 mph (9 knots: 4.6 m/s)
Visibility:
Ceiling:
at least 12,000 feet AGL
Clouds:
Clear Skies
Weather:
Moderate In Vicinity Thunderstorm
TAF text:
2818/2902 32020G28KT 8000 -TSRA BKN030CB BECMG 2905/2906 VRB06KT 9999 NSW SCT008 QNH2997INS BECMG 2908/2909 VRB06KT 4800 BR OVC007 QNH2999INS
Forecast period:
Wednesday Jun 29 2016 18:00 UTC - Thursday Jun 30 2016 02:00 UTC
Forecast type:
FROM: standard forecast or significant change
Winds:
variable wind direction at 6.9 mph (6 knots: 3.1 m/s)
Visibility:
Ceiling:
at least 12,000 feet AGL
700 feet AGL
Clouds:
Scattered Clouds at 800 feet AGL
Overcast Skies at 700 feet AGL
Weather:
Light Thunderstorm Rain
FBO's on the Field
FBO Company Facility Photos Services Transportation Aviation Fuel Prices: Prices include tax
Catering Weather Repair Courtesy Rental Type 100LL JetA JetA+ MOGAS 8087
 
Enterprise Municipal Airport

This FBO has not yet been rated
FS:Epic
Last Updated: Jun-03
Login to update fuel prices
SS:
Contact Enterprise Municipal AirportMore FBO Information
 
Add another FBO Facility Photos Catering Weather Repair Courtesy Rental Type 100LL JetA JetA+ MOGAS 8087
Services Transportation Aviation Fuel Prices: Prices include tax


model-print
model-print
model-print
model-print